sensor_id;sensor_type;location;lat;lon;timestamp;P1;durP1;ratioP1;P2;durP2;ratioP2
9072;SDS011;4572;41.642;25.370;2022-07-10T00:01:56;2.62;;;2.52;;
9072;SDS011;4572;41.642;25.370;2022-07-10T00:04:24;2.75;;;2.55;;
9072;SDS011;4572;41.642;25.370;2022-07-10T00:06:52;3.20;;;3.00;;
9072;SDS011;4572;41.642;25.370;2022-07-10T00:09:22;3.08;;;2.87;;
9072;SDS011;4572;41.642;25.370;2022-07-10T00:11:50;2.90;;;2.70;;
9072;SDS011;4572;41.642;25.370;2022-07-10T00:14:18;2.90;;;2.70;;
9072;SDS011;4572;41.642;25.370;2022-07-10T00:16:47;3.60;;;2.70;;
9072;SDS011;4572;41.642;25.370;2022-07-10T00:19:15;2.67;;;2.47;;
9072;SDS011;4572;41.642;25.370;2022-07-10T00:21:43;2.62;;;2.40;;
9072;SDS011;4572;41.642;25.370;2022-07-10T00:24:14;2.77;;;2.58;;
9072;SDS011;4572;41.642;25.370;2022-07-10T00:26:42;2.85;;;2.60;;
9072;SDS011;4572;41.642;25.370;2022-07-10T00:29:10;3.47;;;2.55;;
9072;SDS011;4572;41.642;25.370;2022-07-10T00:31:39;2.30;;;2.20;;
9072;SDS011;4572;41.642;25.370;2022-07-10T00:34:07;2.43;;;2.23;;
9072;SDS011;4572;41.642;25.370;2022-07-10T00:36:38;2.30;;;2.20;;
9072;SDS011;4572;41.642;25.370;2022-07-10T00:39:06;4.57;;;2.33;;
9072;SDS011;4572;41.642;25.370;2022-07-10T00:41:35;3.00;;;2.50;;
9072;SDS011;4572;41.642;25.370;2022-07-10T00:44:03;2.70;;;2.50;;
9072;SDS011;4572;41.642;25.370;2022-07-10T00:46:32;3.08;;;2.47;;
9072;SDS011;4572;41.642;25.370;2022-07-10T00:49:00;3.30;;;2.60;;
9072;SDS011;4572;41.642;25.370;2022-07-10T00:51:28;2.67;;;2.47;;
9072;SDS011;4572;41.642;25.370;2022-07-10T00:53:57;3.33;;;2.30;;
9072;SDS011;4572;41.642;25.370;2022-07-10T00:56:26;2.60;;;2.40;;
9072;SDS011;4572;41.642;25.370;2022-07-10T00:58:55;2.73;;;2.50;;
9072;SDS011;4572;41.642;25.370;2022-07-10T01:01:23;2.47;;;2.27;;
9072;SDS011;4572;41.642;25.370;2022-07-10T01:03:51;2.63;;;2.43;;
9072;SDS011;4572;41.642;25.370;2022-07-10T01:06:19;3.87;;;2.73;;
9072;SDS011;4572;41.642;25.370;2022-07-10T01:08:47;2.63;;;2.40;;
9072;SDS011;4572;41.642;25.370;2022-07-10T01:11:16;5.90;;;2.60;;
9072;SDS011;4572;41.642;25.370;2022-07-10T01:13:44;3.23;;;2.40;;
9072;SDS011;4572;41.642;25.370;2022-07-10T01:16:12;3.00;;;2.53;;
9072;SDS011;4572;41.642;25.370;2022-07-10T01:18:41;3.43;;;2.70;;
9072;SDS011;4572;41.642;25.370;2022-07-10T01:21:23;2.57;;;2.30;;
9072;SDS011;4572;41.642;25.370;2022-07-10T01:23:51;3.43;;;2.77;;
9072;SDS011;4572;41.642;25.370;2022-07-10T01:26:19;2.40;;;2.30;;
9072;SDS011;4572;41.642;25.370;2022-07-10T01:28:49;2.70;;;2.50;;
9072;SDS011;4572;41.642;25.370;2022-07-10T01:31:17;3.00;;;2.70;;
9072;SDS011;4572;41.642;25.370;2022-07-10T01:33:45;2.70;;;2.50;;
9072;SDS011;4572;41.642;25.370;2022-07-10T01:36:14;2.30;;;2.20;;
9072;SDS011;4572;41.642;25.370;2022-07-10T01:38:43;2.73;;;2.53;;
9072;SDS011;4572;41.642;25.370;2022-07-10T01:41:11;2.83;;;2.33;;
9072;SDS011;4572;41.642;25.370;2022-07-10T01:43:40;2.40;;;2.20;;
9072;SDS011;4572;41.642;25.370;2022-07-10T01:46:10;5.70;;;2.70;;
9072;SDS011;4572;41.642;25.370;2022-07-10T01:48:38;2.83;;;2.57;;
9072;SDS011;4572;41.642;25.370;2022-07-10T01:51:07;2.73;;;2.53;;
9072;SDS011;4572;41.642;25.370;2022-07-10T01:53:35;2.67;;;2.47;;
9072;SDS011;4572;41.642;25.370;2022-07-10T01:56:04;2.60;;;2.40;;
9072;SDS011;4572;41.642;25.370;2022-07-10T01:58:33;2.93;;;2.67;;
9072;SDS011;4572;41.642;25.370;2022-07-10T02:01:02;3.07;;;2.57;;
9072;SDS011;4572;41.642;25.370;2022-07-10T02:03:30;2.60;;;2.40;;
9072;SDS011;4572;41.642;25.370;2022-07-10T02:06:16;3.37;;;2.50;;
9072;SDS011;4572;41.642;25.370;2022-07-10T02:08:44;4.20;;;2.60;;
9072;SDS011;4572;41.642;25.370;2022-07-10T02:11:12;2.73;;;2.47;;
9072;SDS011;4572;41.642;25.370;2022-07-10T02:13:40;2.87;;;2.67;;
9072;SDS011;4572;41.642;25.370;2022-07-10T02:16:09;2.63;;;2.40;;
9072;SDS011;4572;41.642;25.370;2022-07-10T02:18:37;2.67;;;2.47;;
9072;SDS011;4572;41.642;25.370;2022-07-10T02:21:06;3.37;;;2.20;;
9072;SDS011;4572;41.642;25.370;2022-07-10T02:23:34;2.67;;;1.97;;
9072;SDS011;4572;41.642;25.370;2022-07-10T02:26:03;2.83;;;2.33;;
9072;SDS011;4572;41.642;25.370;2022-07-10T02:28:31;2.20;;;2.00;;
9072;SDS011;4572;41.642;25.370;2022-07-10T02:30:59;2.30;;;2.10;;
9072;SDS011;4572;41.642;25.370;2022-07-10T02:33:27;2.60;;;2.40;;
9072;SDS011;4572;41.642;25.370;2022-07-10T02:35:55;4.23;;;2.30;;
9072;SDS011;4572;41.642;25.370;2022-07-10T02:38:23;2.97;;;2.47;;
9072;SDS011;4572;41.642;25.370;2022-07-10T02:40:51;3.47;;;2.43;;
9072;SDS011;4572;41.642;25.370;2022-07-10T02:43:24;2.50;;;2.30;;
9072;SDS011;4572;41.642;25.370;2022-07-10T02:46:01;2.47;;;2.27;;
9072;SDS011;4572;41.642;25.370;2022-07-10T02:51:28;4.23;;;3.20;;
9072;SDS011;4572;41.642;25.370;2022-07-10T02:53:59;2.40;;;2.20;;
9072;SDS011;4572;41.642;25.370;2022-07-10T02:59:19;2.60;;;2.40;;
9072;SDS011;4572;41.642;25.370;2022-07-10T03:01:51;2.60;;;2.50;;
9072;SDS011;4572;41.642;25.370;2022-07-10T03:04:22;3.30;;;2.67;;
9072;SDS011;4572;41.642;25.370;2022-07-10T03:06:55;2.67;;;2.47;;
9072;SDS011;4572;41.642;25.370;2022-07-10T03:09:33;2.37;;;2.17;;
9072;SDS011;4572;41.642;25.370;2022-07-10T03:12:07;2.33;;;2.20;;
9072;SDS011;4572;41.642;25.370;2022-07-10T03:17:30;2.80;;;2.60;;
9072;SDS011;4572;41.642;25.370;2022-07-10T03:19:58;3.63;;;2.60;;
9072;SDS011;4572;41.642;25.370;2022-07-10T03:22:37;2.40;;;2.30;;
9072;SDS011;4572;41.642;25.370;2022-07-10T03:25:09;2.50;;;2.30;;
9072;SDS011;4572;41.642;25.370;2022-07-10T03:27:38;2.90;;;2.70;;
9072;SDS011;4572;41.642;25.370;2022-07-10T03:30:13;2.43;;;2.23;;
9072;SDS011;4572;41.642;25.370;2022-07-10T03:33:07;3.03;;;2.50;;
9072;SDS011;4572;41.642;25.370;2022-07-10T03:39:12;5.20;;;2.73;;
9072;SDS011;4572;41.642;25.370;2022-07-10T03:41:55;3.30;;;2.77;;
9072;SDS011;4572;41.642;25.370;2022-07-10T03:44:38;2.70;;;2.50;;
9072;SDS011;4572;41.642;25.370;2022-07-10T03:55:45;2.63;;;2.43;;
9072;SDS011;4572;41.642;25.370;2022-07-10T03:58:24;3.87;;;2.80;;
9072;SDS011;4572;41.642;25.370;2022-07-10T04:00:55;2.97;;;2.60;;
9072;SDS011;4572;41.642;25.370;2022-07-10T04:03:23;2.77;;;2.40;;
9072;SDS011;4572;41.642;25.370;2022-07-10T04:06:00;2.70;;;2.50;;
9072;SDS011;4572;41.642;25.370;2022-07-10T04:08:39;4.67;;;2.50;;
9072;SDS011;4572;41.642;25.370;2022-07-10T04:13:57;3.93;;;2.83;;
9072;SDS011;4572;41.642;25.370;2022-07-10T04:16:49;4.30;;;2.60;;
9072;SDS011;4572;41.642;25.370;2022-07-10T04:19:40;3.27;;;2.80;;
9072;SDS011;4572;41.642;25.370;2022-07-10T04:22:14;2.83;;;2.63;;
9072;SDS011;4572;41.642;25.370;2022-07-10T04:27:51;2.80;;;2.60;;
9072;SDS011;4572;41.642;25.370;2022-07-10T04:30:43;3.10;;;2.80;;
9072;SDS011;4572;41.642;25.370;2022-07-10T04:35:58;2.60;;;2.40;;
9072;SDS011;4572;41.642;25.370;2022-07-10T04:38:30;3.40;;;3.10;;
9072;SDS011;4572;41.642;25.370;2022-07-10T04:41:02;3.00;;;2.80;;
9072;SDS011;4572;41.642;25.370;2022-07-10T04:43:31;3.20;;;2.90;;
9072;SDS011;4572;41.642;25.370;2022-07-10T04:46:00;3.53;;;2.80;;
9072;SDS011;4572;41.642;25.370;2022-07-10T04:48:29;4.53;;;3.00;;
9072;SDS011;4572;41.642;25.370;2022-07-10T04:51:00;3.55;;;2.83;;
9072;SDS011;4572;41.642;25.370;2022-07-10T04:53:29;4.37;;;3.02;;
9072;SDS011;4572;41.642;25.370;2022-07-10T04:55:59;3.30;;;3.10;;
9072;SDS011;4572;41.642;25.370;2022-07-10T04:58:30;2.70;;;2.50;;
9072;SDS011;4572;41.642;25.370;2022-07-10T05:00:58;3.00;;;2.63;;
9072;SDS011;4572;41.642;25.370;2022-07-10T05:03:26;4.33;;;3.13;;
9072;SDS011;4572;41.642;25.370;2022-07-10T05:05:55;3.00;;;2.80;;
9072;SDS011;4572;41.642;25.370;2022-07-10T05:08:24;2.60;;;2.40;;
9072;SDS011;4572;41.642;25.370;2022-07-10T05:10:52;4.10;;;3.03;;
9072;SDS011;4572;41.642;25.370;2022-07-10T05:13:20;2.97;;;2.77;;
9072;SDS011;4572;41.642;25.370;2022-07-10T05:15:48;3.10;;;2.90;;
9072;SDS011;4572;41.642;25.370;2022-07-10T05:18:17;4.10;;;3.00;;
9072;SDS011;4572;41.642;25.370;2022-07-10T05:20:45;2.90;;;2.70;;
9072;SDS011;4572;41.642;25.370;2022-07-10T05:23:15;3.10;;;2.90;;
9072;SDS011;4572;41.642;25.370;2022-07-10T05:25:43;3.37;;;3.10;;
9072;SDS011;4572;41.642;25.370;2022-07-10T05:28:12;3.30;;;3.10;;
9072;SDS011;4572;41.642;25.370;2022-07-10T05:30:41;3.17;;;2.80;;
9072;SDS011;4572;41.642;25.370;2022-07-10T05:33:09;3.00;;;2.70;;
9072;SDS011;4572;41.642;25.370;2022-07-10T05:35:37;2.90;;;2.70;;
9072;SDS011;4572;41.642;25.370;2022-07-10T05:38:05;3.60;;;3.20;;
9072;SDS011;4572;41.642;25.370;2022-07-10T05:40:33;3.60;;;2.80;;
9072;SDS011;4572;41.642;25.370;2022-07-10T05:43:01;3.42;;;3.12;;
9072;SDS011;4572;41.642;25.370;2022-07-10T05:45:30;3.15;;;2.95;;
9072;SDS011;4572;41.642;25.370;2022-07-10T05:47:58;3.30;;;2.97;;
9072;SDS011;4572;41.642;25.370;2022-07-10T05:50:26;4.37;;;3.67;;
9072;SDS011;4572;41.642;25.370;2022-07-10T05:52:55;3.45;;;2.98;;
9072;SDS011;4572;41.642;25.370;2022-07-10T05:55:23;3.15;;;2.75;;
9072;SDS011;4572;41.642;25.370;2022-07-10T05:57:51;3.60;;;3.15;;
9072;SDS011;4572;41.642;25.370;2022-07-10T06:00:21;3.77;;;2.60;;
9072;SDS011;4572;41.642;25.370;2022-07-10T06:02:49;3.22;;;2.98;;
9072;SDS011;4572;41.642;25.370;2022-07-10T06:05:21;3.20;;;2.90;;
9072;SDS011;4572;41.642;25.370;2022-07-10T06:07:51;4.62;;;3.20;;
9072;SDS011;4572;41.642;25.370;2022-07-10T06:10:19;3.65;;;3.05;;
9072;SDS011;4572;41.642;25.370;2022-07-10T06:12:47;3.60;;;3.30;;
9072;SDS011;4572;41.642;25.370;2022-07-10T06:15:16;4.17;;;3.87;;
9072;SDS011;4572;41.642;25.370;2022-07-10T06:17:44;3.77;;;3.22;;
9072;SDS011;4572;41.642;25.370;2022-07-10T06:20:12;3.62;;;3.33;;
9072;SDS011;4572;41.642;25.370;2022-07-10T06:22:40;4.20;;;3.00;;
9072;SDS011;4572;41.642;25.370;2022-07-10T06:25:09;3.35;;;3.10;;
9072;SDS011;4572;41.642;25.370;2022-07-10T06:27:38;3.47;;;3.17;;
9072;SDS011;4572;41.642;25.370;2022-07-10T06:30:07;3.37;;;3.17;;
9072;SDS011;4572;41.642;25.370;2022-07-10T06:32:35;3.42;;;3.22;;
9072;SDS011;4572;41.642;25.370;2022-07-10T06:35:04;3.90;;;3.45;;
9072;SDS011;4572;41.642;25.370;2022-07-10T06:37:33;4.12;;;3.83;;
9072;SDS011;4572;41.642;25.370;2022-07-10T06:40:02;4.03;;;3.60;;
9072;SDS011;4572;41.642;25.370;2022-07-10T06:42:30;3.52;;;3.22;;
9072;SDS011;4572;41.642;25.370;2022-07-10T06:44:58;3.55;;;3.35;;
9072;SDS011;4572;41.642;25.370;2022-07-10T06:47:26;5.17;;;3.55;;
9072;SDS011;4572;41.642;25.370;2022-07-10T06:50:13;5.50;;;3.50;;
9072;SDS011;4572;41.642;25.370;2022-07-10T06:52:41;3.65;;;3.35;;
9072;SDS011;4572;41.642;25.370;2022-07-10T06:55:09;3.08;;;2.87;;
9072;SDS011;4572;41.642;25.370;2022-07-10T06:57:38;3.85;;;3.55;;
9072;SDS011;4572;41.642;25.370;2022-07-10T07:00:07;3.58;;;3.27;;
9072;SDS011;4572;41.642;25.370;2022-07-10T07:02:37;3.40;;;3.20;;
9072;SDS011;4572;41.642;25.370;2022-07-10T07:05:06;3.47;;;2.80;;
9072;SDS011;4572;41.642;25.370;2022-07-10T07:07:35;3.30;;;3.00;;
9072;SDS011;4572;41.642;25.370;2022-07-10T07:10:03;3.60;;;3.27;;
9072;SDS011;4572;41.642;25.370;2022-07-10T07:12:32;3.40;;;3.10;;
9072;SDS011;4572;41.642;25.370;2022-07-10T07:15:00;3.52;;;3.22;;
9072;SDS011;4572;41.642;25.370;2022-07-10T07:17:28;4.30;;;3.50;;
9072;SDS011;4572;41.642;25.370;2022-07-10T07:20:01;3.83;;;3.50;;
9072;SDS011;4572;41.642;25.370;2022-07-10T07:22:47;3.80;;;3.50;;
9072;SDS011;4572;41.642;25.370;2022-07-10T07:25:32;3.12;;;2.92;;
9072;SDS011;4572;41.642;25.370;2022-07-10T07:28:00;4.08;;;3.77;;
9072;SDS011;4572;41.642;25.370;2022-07-10T07:30:29;4.55;;;4.15;;
9072;SDS011;4572;41.642;25.370;2022-07-10T07:32:57;3.72;;;3.42;;
9072;SDS011;4572;41.642;25.370;2022-07-10T07:35:25;3.70;;;3.40;;
9072;SDS011;4572;41.642;25.370;2022-07-10T07:37:53;3.47;;;3.17;;
9072;SDS011;4572;41.642;25.370;2022-07-10T07:40:22;4.20;;;3.90;;
9072;SDS011;4572;41.642;25.370;2022-07-10T07:42:50;4.25;;;3.85;;
9072;SDS011;4572;41.642;25.370;2022-07-10T07:45:20;3.65;;;3.35;;
9072;SDS011;4572;41.642;25.370;2022-07-10T07:47:48;4.83;;;3.50;;
9072;SDS011;4572;41.642;25.370;2022-07-10T07:50:18;4.15;;;3.35;;
9072;SDS011;4572;41.642;25.370;2022-07-10T07:52:46;3.87;;;3.50;;
9072;SDS011;4572;41.642;25.370;2022-07-10T07:55:15;4.45;;;2.90;;
9072;SDS011;4572;41.642;25.370;2022-07-10T07:57:45;3.55;;;3.35;;
9072;SDS011;4572;41.642;25.370;2022-07-10T08:00:14;4.15;;;3.70;;
9072;SDS011;4572;41.642;25.370;2022-07-10T08:02:44;3.83;;;3.40;;
9072;SDS011;4572;41.642;25.370;2022-07-10T08:05:12;4.35;;;3.95;;
9072;SDS011;4572;41.642;25.370;2022-07-10T08:07:41;3.90;;;3.60;;
9072;SDS011;4572;41.642;25.370;2022-07-10T08:10:10;3.65;;;3.35;;
9072;SDS011;4572;41.642;25.370;2022-07-10T08:12:39;4.08;;;3.67;;
9072;SDS011;4572;41.642;25.370;2022-07-10T08:15:09;3.60;;;3.30;;
9072;SDS011;4572;41.642;25.370;2022-07-10T08:17:37;3.85;;;3.55;;
9072;SDS011;4572;41.642;25.370;2022-07-10T08:20:07;4.05;;;3.72;;
9072;SDS011;4572;41.642;25.370;2022-07-10T08:22:36;5.67;;;3.33;;
9072;SDS011;4572;41.642;25.370;2022-07-10T08:25:05;3.22;;;3.02;;
9072;SDS011;4572;41.642;25.370;2022-07-10T08:27:34;3.52;;;3.33;;
9072;SDS011;4572;41.642;25.370;2022-07-10T08:30:02;5.62;;;3.30;;
9072;SDS011;4572;41.642;25.370;2022-07-10T08:32:31;3.50;;;3.30;;
9072;SDS011;4572;41.642;25.370;2022-07-10T08:34:59;5.10;;;3.62;;
9072;SDS011;4572;41.642;25.370;2022-07-10T08:37:27;3.95;;;3.65;;
9072;SDS011;4572;41.642;25.370;2022-07-10T08:39:55;4.17;;;3.40;;
9072;SDS011;4572;41.642;25.370;2022-07-10T08:42:23;3.77;;;3.37;;
9072;SDS011;4572;41.642;25.370;2022-07-10T08:44:52;4.45;;;3.58;;
9072;SDS011;4572;41.642;25.370;2022-07-10T08:47:23;3.65;;;3.35;;
9072;SDS011;4572;41.642;25.370;2022-07-10T08:49:52;3.60;;;3.30;;
9072;SDS011;4572;41.642;25.370;2022-07-10T08:52:24;4.45;;;3.33;;
9072;SDS011;4572;41.642;25.370;2022-07-10T08:54:54;18.10;;;10.68;;
9072;SDS011;4572;41.642;25.370;2022-07-10T08:57:23;6.12;;;4.83;;
9072;SDS011;4572;41.642;25.370;2022-07-10T08:59:51;3.55;;;3.25;;
9072;SDS011;4572;41.642;25.370;2022-07-10T09:02:20;4.30;;;3.98;;
9072;SDS011;4572;41.642;25.370;2022-07-10T09:04:48;4.60;;;4.17;;
9072;SDS011;4572;41.642;25.370;2022-07-10T09:07:17;4.05;;;3.65;;
9072;SDS011;4572;41.642;25.370;2022-07-10T09:09:55;4.00;;;3.60;;
9072;SDS011;4572;41.642;25.370;2022-07-10T09:12:26;4.67;;;3.90;;
9072;SDS011;4572;41.642;25.370;2022-07-10T09:15:06;6.42;;;4.70;;
9072;SDS011;4572;41.642;25.370;2022-07-10T09:17:25;4.00;;;3.70;;
9072;SDS011;4572;41.642;25.370;2022-07-10T09:19:54;3.98;;;3.58;;
9072;SDS011;4572;41.642;25.370;2022-07-10T09:22:23;3.80;;;3.50;;
9072;SDS011;4572;41.642;25.370;2022-07-10T09:24:53;4.22;;;3.77;;
9072;SDS011;4572;41.642;25.370;2022-07-10T09:27:21;3.55;;;3.25;;
9072;SDS011;4572;41.642;25.370;2022-07-10T09:29:50;3.17;;;2.98;;
9072;SDS011;4572;41.642;25.370;2022-07-10T09:32:19;3.58;;;3.27;;
9072;SDS011;4572;41.642;25.370;2022-07-10T09:34:48;4.00;;;3.70;;
9072;SDS011;4572;41.642;25.370;2022-07-10T09:37:19;3.75;;;3.45;;
9072;SDS011;4572;41.642;25.370;2022-07-10T09:39:51;3.58;;;3.27;;
9072;SDS011;4572;41.642;25.370;2022-07-10T09:42:33;6.53;;;3.42;;
9072;SDS011;4572;41.642;25.370;2022-07-10T09:45:15;3.65;;;3.35;;
9072;SDS011;4572;41.642;25.370;2022-07-10T09:47:44;3.87;;;3.58;;
9072;SDS011;4572;41.642;25.370;2022-07-10T09:50:22;3.92;;;3.62;;
9072;SDS011;4572;41.642;25.370;2022-07-10T09:52:51;4.05;;;3.67;;
9072;SDS011;4572;41.642;25.370;2022-07-10T09:55:21;3.58;;;3.30;;
9072;SDS011;4572;41.642;25.370;2022-07-10T09:57:52;3.92;;;3.60;;
9072;SDS011;4572;41.642;25.370;2022-07-10T10:00:20;4.20;;;3.00;;
9072;SDS011;4572;41.642;25.370;2022-07-10T10:02:51;3.33;;;3.12;;
9072;SDS011;4572;41.642;25.370;2022-07-10T10:05:19;4.30;;;3.40;;
9072;SDS011;4572;41.642;25.370;2022-07-10T10:07:48;3.95;;;3.52;;
9072;SDS011;4572;41.642;25.370;2022-07-10T10:10:16;4.35;;;3.25;;
9072;SDS011;4572;41.642;25.370;2022-07-10T10:12:46;3.67;;;3.37;;
9072;SDS011;4572;41.642;25.370;2022-07-10T10:15:14;3.90;;;3.50;;
9072;SDS011;4572;41.642;25.370;2022-07-10T10:17:42;3.90;;;3.60;;
9072;SDS011;4572;41.642;25.370;2022-07-10T10:20:11;4.10;;;3.62;;
9072;SDS011;4572;41.642;25.370;2022-07-10T10:22:58;3.98;;;3.67;;
9072;SDS011;4572;41.642;25.370;2022-07-10T10:25:28;4.25;;;3.35;;
9072;SDS011;4572;41.642;25.370;2022-07-10T10:27:56;5.30;;;3.87;;
9072;SDS011;4572;41.642;25.370;2022-07-10T10:30:24;7.08;;;3.70;;
9072;SDS011;4572;41.642;25.370;2022-07-10T10:35:49;3.95;;;3.55;;
9072;SDS011;4572;41.642;25.370;2022-07-10T10:38:20;4.25;;;3.70;;
9072;SDS011;4572;41.642;25.370;2022-07-10T10:40:49;4.87;;;4.20;;
9072;SDS011;4572;41.642;25.370;2022-07-10T10:43:18;6.72;;;5.25;;
9072;SDS011;4572;41.642;25.370;2022-07-10T10:45:47;4.67;;;4.22;;
9072;SDS011;4572;41.642;25.370;2022-07-10T10:48:15;4.25;;;3.85;;
9072;SDS011;4572;41.642;25.370;2022-07-10T10:50:49;14.07;;;7.75;;
9072;SDS011;4572;41.642;25.370;2022-07-10T10:53:19;25.27;;;12.53;;
9072;SDS011;4572;41.642;25.370;2022-07-10T10:58:47;8.50;;;4.72;;
9072;SDS011;4572;41.642;25.370;2022-07-10T11:01:29;12.63;;;7.60;;
9072;SDS011;4572;41.642;25.370;2022-07-10T11:04:17;16.30;;;9.18;;
9072;SDS011;4572;41.642;25.370;2022-07-10T11:06:47;11.57;;;7.28;;
9072;SDS011;4572;41.642;25.370;2022-07-10T11:09:21;5.20;;;4.70;;
9072;SDS011;4572;41.642;25.370;2022-07-10T11:11:58;4.12;;;3.83;;
9072;SDS011;4572;41.642;25.370;2022-07-10T11:14:27;5.55;;;4.50;;
9072;SDS011;4572;41.642;25.370;2022-07-10T11:16:56;4.87;;;4.33;;
9072;SDS011;4572;41.642;25.370;2022-07-10T11:19:24;3.50;;;3.20;;
9072;SDS011;4572;41.642;25.370;2022-07-10T11:24:42;4.28;;;3.87;;
9072;SDS011;4572;41.642;25.370;2022-07-10T11:27:19;4.28;;;3.98;;
9072;SDS011;4572;41.642;25.370;2022-07-10T11:29:44;5.00;;;3.80;;
9072;SDS011;4572;41.642;25.370;2022-07-10T11:32:15;7.65;;;5.95;;
9072;SDS011;4572;41.642;25.370;2022-07-10T11:34:44;5.50;;;5.00;;
9072;SDS011;4572;41.642;25.370;2022-07-10T11:37:15;7.05;;;4.33;;
9072;SDS011;4572;41.642;25.370;2022-07-10T11:39:43;7.10;;;5.08;;
9072;SDS011;4572;41.642;25.370;2022-07-10T11:42:11;4.80;;;4.40;;
9072;SDS011;4572;41.642;25.370;2022-07-10T11:44:39;5.30;;;4.55;;
9072;SDS011;4572;41.642;25.370;2022-07-10T11:47:07;4.85;;;4.45;;
9072;SDS011;4572;41.642;25.370;2022-07-10T11:49:36;4.97;;;4.47;;
9072;SDS011;4572;41.642;25.370;2022-07-10T11:52:08;4.50;;;4.10;;
9072;SDS011;4572;41.642;25.370;2022-07-10T11:54:44;4.80;;;4.40;;
9072;SDS011;4572;41.642;25.370;2022-07-10T11:57:14;5.90;;;4.22;;
9072;SDS011;4572;41.642;25.370;2022-07-10T11:59:44;4.60;;;4.20;;
9072;SDS011;4572;41.642;25.370;2022-07-10T12:02:12;4.67;;;4.28;;
9072;SDS011;4572;41.642;25.370;2022-07-10T12:04:42;4.53;;;4.22;;
9072;SDS011;4572;41.642;25.370;2022-07-10T12:07:10;5.05;;;4.58;;
9072;SDS011;4572;41.642;25.370;2022-07-10T12:09:38;4.85;;;4.45;;
9072;SDS011;4572;41.642;25.370;2022-07-10T12:12:07;4.58;;;4.22;;
9072;SDS011;4572;41.642;25.370;2022-07-10T12:14:35;5.08;;;4.37;;
9072;SDS011;4572;41.642;25.370;2022-07-10T12:17:10;4.60;;;4.30;;
9072;SDS011;4572;41.642;25.370;2022-07-10T12:19:39;5.42;;;5.00;;
9072;SDS011;4572;41.642;25.370;2022-07-10T12:22:07;5.92;;;4.05;;
9072;SDS011;4572;41.642;25.370;2022-07-10T12:24:38;3.95;;;3.65;;
9072;SDS011;4572;41.642;25.370;2022-07-10T12:27:06;4.35;;;3.95;;
9072;SDS011;4572;41.642;25.370;2022-07-10T12:29:36;4.17;;;3.87;;
9072;SDS011;4572;41.642;25.370;2022-07-10T12:32:05;4.25;;;3.85;;
9072;SDS011;4572;41.642;25.370;2022-07-10T12:34:34;4.58;;;4.22;;
9072;SDS011;4572;41.642;25.370;2022-07-10T12:37:07;4.62;;;4.22;;
9072;SDS011;4572;41.642;25.370;2022-07-10T12:39:36;4.20;;;3.90;;
9072;SDS011;4572;41.642;25.370;2022-07-10T12:42:06;3.58;;;3.30;;
9072;SDS011;4572;41.642;25.370;2022-07-10T12:47:24;3.87;;;3.50;;
9072;SDS011;4572;41.642;25.370;2022-07-10T12:49:54;3.90;;;3.60;;
9072;SDS011;4572;41.642;25.370;2022-07-10T12:52:39;4.80;;;3.40;;
9072;SDS011;4572;41.642;25.370;2022-07-10T12:55:09;4.35;;;3.62;;
9072;SDS011;4572;41.642;25.370;2022-07-10T12:57:50;3.72;;;3.47;;
9072;SDS011;4572;41.642;25.370;2022-07-10T13:00:23;3.50;;;3.25;;
9072;SDS011;4572;41.642;25.370;2022-07-10T13:02:58;4.05;;;3.45;;
9072;SDS011;4572;41.642;25.370;2022-07-10T13:05:30;3.62;;;3.33;;
9072;SDS011;4572;41.642;25.370;2022-07-10T13:08:05;3.50;;;3.30;;
9072;SDS011;4572;41.642;25.370;2022-07-10T13:10:35;3.40;;;3.20;;
9072;SDS011;4572;41.642;25.370;2022-07-10T13:13:04;4.00;;;3.70;;
9072;SDS011;4572;41.642;25.370;2022-07-10T13:15:34;3.65;;;3.45;;
9072;SDS011;4572;41.642;25.370;2022-07-10T13:18:04;3.65;;;3.35;;
9072;SDS011;4572;41.642;25.370;2022-07-10T13:20:33;3.72;;;3.42;;
9072;SDS011;4572;41.642;25.370;2022-07-10T13:23:03;3.37;;;3.17;;
9072;SDS011;4572;41.642;25.370;2022-07-10T13:25:37;3.42;;;3.22;;
9072;SDS011;4572;41.642;25.370;2022-07-10T13:30:54;3.27;;;3.08;;
9072;SDS011;4572;41.642;25.370;2022-07-10T13:33:22;3.75;;;3.45;;
9072;SDS011;4572;41.642;25.370;2022-07-10T13:35:52;5.25;;;3.50;;
9072;SDS011;4572;41.642;25.370;2022-07-10T13:38:23;3.95;;;3.58;;
9072;SDS011;4572;41.642;25.370;2022-07-10T13:40:58;4.30;;;3.90;;
9072;SDS011;4572;41.642;25.370;2022-07-10T13:43:34;4.03;;;3.72;;
9072;SDS011;4572;41.642;25.370;2022-07-10T13:46:04;4.28;;;3.90;;
9072;SDS011;4572;41.642;25.370;2022-07-10T13:48:33;4.85;;;4.45;;
9072;SDS011;4572;41.642;25.370;2022-07-10T13:51:03;4.80;;;3.85;;
9072;SDS011;4572;41.642;25.370;2022-07-10T13:53:39;3.87;;;3.58;;
9072;SDS011;4572;41.642;25.370;2022-07-10T13:56:09;3.98;;;3.67;;
9072;SDS011;4572;41.642;25.370;2022-07-10T13:58:41;4.03;;;3.72;;
9072;SDS011;4572;41.642;25.370;2022-07-10T14:01:13;5.17;;;3.90;;
9072;SDS011;4572;41.642;25.370;2022-07-10T14:03:42;4.03;;;3.72;;
9072;SDS011;4572;41.642;25.370;2022-07-10T14:06:11;4.20;;;3.90;;
9072;SDS011;4572;41.642;25.370;2022-07-10T14:08:44;4.28;;;3.87;;
9072;SDS011;4572;41.642;25.370;2022-07-10T14:11:13;4.42;;;4.03;;
9072;SDS011;4572;41.642;25.370;2022-07-10T14:13:42;3.83;;;3.52;;
9072;SDS011;4572;41.642;25.370;2022-07-10T14:16:10;4.22;;;3.42;;
9072;SDS011;4572;41.642;25.370;2022-07-10T14:18:39;3.87;;;3.58;;
9072;SDS011;4572;41.642;25.370;2022-07-10T14:21:25;3.72;;;3.52;;
9072;SDS011;4572;41.642;25.370;2022-07-10T14:23:54;4.20;;;3.80;;
9072;SDS011;4572;41.642;25.370;2022-07-10T14:26:25;3.72;;;3.42;;
9072;SDS011;4572;41.642;25.370;2022-07-10T14:31:46;4.28;;;3.98;;
9072;SDS011;4572;41.642;25.370;2022-07-10T14:37:12;4.22;;;3.90;;
9072;SDS011;4572;41.642;25.370;2022-07-10T14:39:42;4.60;;;4.20;;
9072;SDS011;4572;41.642;25.370;2022-07-10T14:45:21;4.50;;;4.12;;
9072;SDS011;4572;41.642;25.370;2022-07-10T14:47:50;4.60;;;4.30;;
9072;SDS011;4572;41.642;25.370;2022-07-10T14:50:21;4.15;;;3.85;;
9072;SDS011;4572;41.642;25.370;2022-07-10T14:52:49;4.53;;;4.12;;
9072;SDS011;4572;41.642;25.370;2022-07-10T14:55:17;7.28;;;4.20;;
9072;SDS011;4572;41.642;25.370;2022-07-10T14:57:45;5.15;;;4.05;;
9072;SDS011;4572;41.642;25.370;2022-07-10T15:00:15;4.37;;;4.08;;
9072;SDS011;4572;41.642;25.370;2022-07-10T15:02:45;4.62;;;4.22;;
9072;SDS011;4572;41.642;25.370;2022-07-10T15:05:35;5.05;;;4.15;;
9072;SDS011;4572;41.642;25.370;2022-07-10T15:08:26;5.33;;;4.83;;
9072;SDS011;4572;41.642;25.370;2022-07-10T15:10:56;5.62;;;4.37;;
9072;SDS011;4572;41.642;25.370;2022-07-10T15:13:26;4.72;;;4.33;;
9072;SDS011;4572;41.642;25.370;2022-07-10T15:15:55;4.15;;;3.85;;
9072;SDS011;4572;41.642;25.370;2022-07-10T15:18:23;4.10;;;3.70;;
9072;SDS011;4572;41.642;25.370;2022-07-10T15:20:51;4.28;;;3.75;;
9072;SDS011;4572;41.642;25.370;2022-07-10T15:23:24;4.50;;;4.10;;
9072;SDS011;4572;41.642;25.370;2022-07-10T15:25:55;4.70;;;4.30;;
9072;SDS011;4572;41.642;25.370;2022-07-10T15:28:23;4.50;;;4.10;;
9072;SDS011;4572;41.642;25.370;2022-07-10T15:30:51;5.20;;;3.90;;
9072;SDS011;4572;41.642;25.370;2022-07-10T15:33:20;4.20;;;3.90;;
9072;SDS011;4572;41.642;25.370;2022-07-10T15:35:48;3.92;;;3.60;;
9072;SDS011;4572;41.642;25.370;2022-07-10T15:38:16;3.83;;;3.58;;
9072;SDS011;4572;41.642;25.370;2022-07-10T15:40:44;5.15;;;4.00;;
9072;SDS011;4572;41.642;25.370;2022-07-10T15:43:12;4.20;;;3.70;;
9072;SDS011;4572;41.642;25.370;2022-07-10T15:45:40;4.42;;;3.40;;
9072;SDS011;4572;41.642;25.370;2022-07-10T15:48:08;5.35;;;3.85;;
9072;SDS011;4572;41.642;25.370;2022-07-10T15:50:39;4.37;;;4.05;;
9072;SDS011;4572;41.642;25.370;2022-07-10T15:53:10;4.10;;;3.80;;
9072;SDS011;4572;41.642;25.370;2022-07-10T15:55:58;4.92;;;3.85;;
9072;SDS011;4572;41.642;25.370;2022-07-10T15:58:32;4.33;;;3.92;;
9072;SDS011;4572;41.642;25.370;2022-07-10T16:04:05;4.08;;;3.77;;
9072;SDS011;4572;41.642;25.370;2022-07-10T16:06:41;5.20;;;4.33;;
9072;SDS011;4572;41.642;25.370;2022-07-10T16:09:11;4.17;;;3.87;;
9072;SDS011;4572;41.642;25.370;2022-07-10T16:11:43;4.50;;;4.10;;
9072;SDS011;4572;41.642;25.370;2022-07-10T16:17:19;4.53;;;4.20;;
9072;SDS011;4572;41.642;25.370;2022-07-10T16:19:49;5.65;;;4.33;;